Portada
METAR-TAF:

METAR-TAF

Aeropuertos :

Patna, India

latitud: 25-36N, longitud: 085-06E, altitud: 51 m

Observación

El informe se hizo hace 39 minutos, a las 04:30 UTC
Viento 2 kt del sureste
Temperatura 19°C
Humedad 100%
Presión 1019 hPa
Visibilidad: 1100 m
Nubes dispersas a una altura de 1800 ft
Cielo nuboso a una altura de 10000 ft
Niebla baja

METAR: VEPT 150430Z 13002KT 1100 R25/0900 MIFG SCT018 BKN100 19/19 Q1019 NOSIG

Hora: 10:39 (05:09 UTC)

Pronóstico

El informe se hizo hace 3 horas y 9 minutos, a las 02:00 UTC
Pronóstico válido del 15 a las 03 UTC al 15 a las 12 UTC
Viento 4 kt del norte
Visibilidad: 0800 m
Nubes dispersas a una altura de 2000 ft
Cielo nuboso a una altura de 10000 ft
niebla
Evolucionando progresivamente
del 15 a las 08 UTC al 15 a las 10 UTC
Visibilidad: 3500 m
calima

TAF: VEPT 150200Z 1503/1512 35004KT 0800 FG SCT020 BKN100 BECMG 1508/1510 3500 HZ

Observaciones y pronósticos meteorológicos de más de 4000 aeropuertos (mensajes METAR y TAF).

Los puntos amarillos y rojos representan las estaciones disponibles.

Ponga el ratón en el punto deseado para ver el nombre de la estación.

Haga clic para ver las observaciones y los pronósticos meteorológicos.

Para cambiar el mapa : haga clic en los botones verdes con una cruz de color negro para hacer un zoom, en el botón verde con un guión para alejar o en las flechas verdes para mapas adyacentes.


METAR-TAF: